Time;durP1;ratioP1;P1;durP2;ratioP2;P2;SDS_P1;SDS_P2;PMS_P1;PMS_P2;Temp;Humidity;BMP_temperature;BMP_pressure;BME280_temperature;BME280_humidity;BME280_pressure;Samples;Min_cycle;Max_cycle;Signal;HPM_P1;HPM_P2
2023/11/25 00:01:36;;;;;;;12.50;2.17;;;5.40;99.90;;;;;;4995013;28;20038;-71
2023/11/25 00:04:01;;;;;;;11.70;1.33;;;5.30;99.90;;;;;;4993911;28;20509;-71
2023/11/25 00:06:27;;;;;;;13.65;1.80;;;5.40;99.90;;;;;;4993326;28;20044;-71
2023/11/25 00:08:53;;;;;;;9.85;1.85;;;5.40;99.90;;;;;;4994756;28;20097;-71
2023/11/25 00:11:19;;;;;;;8.95;2.08;;;5.40;99.90;;;;;;4993735;28;20046;-70
2023/11/25 00:13:45;;;;;;;8.02;2.20;;;5.40;99.90;;;;;;4993342;28;20121;-71
2023/11/25 00:16:10;;;;;;;8.00;2.00;;;5.40;99.90;;;;;;4994565;28;20118;-71
2023/11/25 00:18:36;;;;;;;11.43;1.83;;;5.30;99.90;;;;;;4994703;28;20046;-71
2023/11/25 00:21:01;;;;;;;7.22;1.80;;;5.30;99.90;;;;;;4994654;28;20042;-71
2023/11/25 00:23:27;;;;;;;8.15;1.40;;;5.30;99.90;;;;;;4994391;28;20493;-71
2023/11/25 00:25:54;;;;;;;10.20;2.75;;;5.30;99.90;;;;;;4992814;28;20047;-71
2023/11/25 00:28:19;;;;;;;12.45;2.10;;;5.20;99.90;;;;;;4994082;28;20512;-71
2023/11/25 00:30:46;;;;;;;7.40;1.50;;;5.30;99.90;;;;;;4994535;28;20038;-71
2023/11/25 00:33:13;;;;;;;14.25;3.20;;;5.20;99.90;;;;;;4994431;28;20038;-70
2023/11/25 00:35:40;;;;;;;10.00;1.75;;;5.30;99.90;;;;;;4994118;28;20504;-71
2023/11/25 00:38:08;;;;;;;7.05;1.55;;;5.30;99.90;;;;;;4994229;28;20046;-71
2023/11/25 00:40:37;;;;;;;9.10;1.45;;;5.20;99.90;;;;;;4992813;28;20506;-71
2023/11/25 00:43:02;;;;;;;10.32;2.30;;;5.20;99.90;;;;;;4992852;28;20109;-71
2023/11/25 00:45:28;;;;;;;15.15;2.00;;;5.20;99.90;;;;;;4993841;28;20074;-71
2023/11/25 00:47:56;;;;;;;10.25;1.80;;;5.20;99.90;;;;;;4993899;28;20058;-71
2023/11/25 00:50:22;;;;;;;7.57;1.95;;;5.20;99.90;;;;;;4992731;28;20046;-71
2023/11/25 00:52:47;;;;;;;13.07;2.83;;;5.20;99.90;;;;;;4993976;28;20035;-71
2023/11/25 00:55:13;;;;;;;11.15;4.22;;;5.30;99.90;;;;;;4993582;28;20046;-71
2023/11/25 00:57:39;;;;;;;10.43;3.05;;;5.40;99.90;;;;;;4992903;28;20486;-71
2023/11/25 01:00:05;;;;;;;11.45;2.05;;;5.40;99.90;;;;;;4993921;28;20038;-71
2023/11/25 01:02:31;;;;;;;10.90;2.28;;;5.50;99.90;;;;;;4994025;28;20113;-71
2023/11/25 01:04:57;;;;;;;16.25;2.22;;;5.50;99.90;;;;;;4993850;28;20074;-71
2023/11/25 01:07:22;;;;;;;12.23;2.47;;;5.70;99.90;;;;;;4993493;28;20117;-72
2023/11/25 01:09:48;;;;;;;7.97;1.92;;;5.70;99.90;;;;;;4993572;28;20031;-72
2023/11/25 01:12:14;;;;;;;14.35;2.00;;;5.70;99.90;;;;;;4993522;28;20074;-72
2023/11/25 01:14:40;;;;;;;15.05;2.00;;;5.60;99.90;;;;;;4993726;28;20046;-72
2023/11/25 01:17:06;;;;;;;7.68;1.83;;;5.50;99.90;;;;;;4993465;28;20488;-72
2023/11/25 01:19:32;;;;;;;10.55;2.33;;;5.40;99.90;;;;;;4992127;28;20040;-72
2023/11/25 01:21:57;;;;;;;16.80;2.13;;;5.30;99.90;;;;;;4993460;28;20042;-71
2023/11/25 01:24:23;;;;;;;12.65;2.70;;;5.30;99.90;;;;;;4993198;28;20114;-72
2023/11/25 01:26:49;;;;;;;7.80;2.05;;;5.20;99.90;;;;;;4974827;28;20046;-72
2023/11/25 01:29:15;;;;;;;12.32;2.05;;;5.20;99.90;;;;;;5006137;23;20046;-75
2023/11/25 01:31:40;;;;;;;10.10;2.38;;;5.20;99.90;;;;;;4995010;28;20042;-74
2023/11/25 01:34:06;;;;;;;10.45;2.25;;;5.20;99.90;;;;;;4994690;28;20065;-74
2023/11/25 01:36:32;;;;;;;17.42;2.20;;;5.10;99.90;;;;;;4995058;28;20045;-74
2023/11/25 01:38:58;;;;;;;11.13;2.35;;;5.10;99.90;;;;;;4995200;28;20041;-74
2023/11/25 01:41:23;;;;;;;13.10;2.60;;;5.10;99.90;;;;;;4996380;28;20097;-74
2023/11/25 01:43:50;;;;;;;15.82;2.40;;;5.10;99.90;;;;;;4979344;28;20041;-74
2023/11/25 01:46:36;;;;;;;10.80;2.78;;;5.10;99.90;;;;;;4994556;28;20057;-74
2023/11/25 01:49:02;;;;;;;8.80;1.98;;;5.10;99.90;;;;;;4994549;28;20070;-74
2023/11/25 01:51:28;;;;;;;12.15;2.35;;;5.20;99.90;;;;;;4995957;28;20042;-74
2023/11/25 01:53:54;;;;;;;12.25;2.15;;;5.10;99.90;;;;;;4995478;28;20043;-74
2023/11/25 01:56:20;;;;;;;13.00;3.03;;;5.20;99.90;;;;;;4994365;28;20046;-74
2023/11/25 01:58:46;;;;;;;10.90;2.40;;;5.20;99.90;;;;;;4994561;28;20046;-74
2023/11/25 02:01:12;;;;;;;13.02;2.72;;;5.20;99.90;;;;;;4995629;28;20133;-74
2023/11/25 02:03:37;;;;;;;11.40;3.00;;;5.20;99.90;;;;;;4998354;28;20042;-74
2023/11/25 02:06:03;;;;;;;12.88;2.15;;;5.20;99.90;;;;;;4997563;28;20038;-74
2023/11/25 02:08:29;;;;;;;16.23;2.55;;;5.10;99.90;;;;;;4997514;28;20393;-74
2023/11/25 02:10:54;;;;;;;17.60;2.35;;;5.10;99.90;;;;;;4996156;28;20039;-74
2023/11/25 02:13:20;;;;;;;8.30;2.13;;;5.10;99.90;;;;;;4996775;28;20092;-74
2023/11/25 02:15:45;;;;;;;12.93;2.55;;;5.10;99.90;;;;;;4993613;28;20041;-74
2023/11/25 02:18:11;;;;;;;15.48;2.50;;;5.10;99.90;;;;;;4993878;28;20046;-74
2023/11/25 02:20:40;;;;;;;14.60;2.05;;;5.20;99.90;;;;;;4995786;28;20046;-74
2023/11/25 02:23:22;;;;;;;11.48;1.80;;;5.10;99.90;;;;;;4978542;28;20042;-74
2023/11/25 02:25:49;;;;;;;11.05;2.53;;;5.20;99.90;;;;;;4979210;28;20445;-74
2023/11/25 02:28:21;;;;;;;9.40;2.80;;;5.20;99.90;;;;;;4994032;28;20034;-74
2023/11/25 02:30:47;;;;;;;11.98;3.58;;;5.20;99.90;;;;;;4980291;28;20053;-74
2023/11/25 02:33:17;;;;;;;12.07;2.67;;;5.20;99.90;;;;;;4978152;28;20049;-74
2023/11/25 02:35:43;;;;;;;12.73;2.20;;;5.30;99.90;;;;;;4978205;28;20038;-74
2023/11/25 02:38:12;;;;;;;12.00;2.53;;;5.20;99.90;;;;;;4996467;28;20042;-74
2023/11/25 02:40:39;;;;;;;18.85;2.28;;;5.20;99.90;;;;;;4994202;28;20042;-74
2023/11/25 02:43:07;;;;;;;7.05;2.10;;;5.20;99.90;;;;;;4994866;28;20054;-74
2023/11/25 02:45:33;;;;;;;12.07;2.38;;;5.20;99.90;;;;;;4979785;28;20421;-74
2023/11/25 02:47:59;;;;;;;7.60;2.13;;;5.20;99.90;;;;;;4999333;28;20069;-74
2023/11/25 02:50:25;;;;;;;9.30;1.63;;;5.10;99.90;;;;;;4997584;28;20042;-74
2023/11/25 02:52:51;;;;;;;13.90;2.45;;;5.10;99.90;;;;;;4983175;28;20034;-74
2023/11/25 02:55:16;;;;;;;15.45;2.17;;;5.10;99.90;;;;;;4997603;28;20073;-74
2023/11/25 02:57:43;;;;;;;12.93;2.30;;;5.10;99.90;;;;;;4980710;28;20050;-74
2023/11/25 03:02:51;;;;;;;16.92;2.55;;;5.00;99.90;;;;;;4998940;28;20498;-74
2023/11/25 03:05:17;;;;;;;8.85;2.80;;;5.00;99.90;;;;;;4998581;28;20050;-74
2023/11/25 03:07:44;;;;;;;8.60;2.38;;;5.10;99.90;;;;;;4999232;28;20031;-75
2023/11/25 03:10:10;;;;;;;13.63;2.13;;;5.10;99.90;;;;;;4982687;28;20049;-75
2023/11/25 03:12:36;;;;;;;14.05;2.78;;;5.20;99.90;;;;;;5001028;28;20038;-74
2023/11/25 03:15:02;;;;;;;11.73;2.33;;;5.20;99.90;;;;;;5001438;28;20142;-74
2023/11/25 03:17:29;;;;;;;14.13;2.42;;;5.20;99.90;;;;;;4999774;28;20413;-75
2023/11/25 03:19:54;;;;;;;14.95;2.13;;;5.20;99.90;;;;;;4981326;28;20101;-74
2023/11/25 03:22:21;;;;;;;15.93;2.97;;;5.20;99.90;;;;;;4998358;28;20038;-74
2023/11/25 03:24:48;;;;;;;6.60;2.55;;;5.20;99.90;;;;;;4983118;28;20061;-74
2023/11/25 03:27:15;;;;;;;11.00;2.30;;;5.20;99.90;;;;;;4996546;28;20156;-74
2023/11/25 03:29:40;;;;;;;13.15;2.45;;;5.30;99.90;;;;;;4996371;28;20050;-74
2023/11/25 03:32:06;;;;;;;11.95;2.15;;;5.30;99.90;;;;;;4998598;28;20042;-74
2023/11/25 03:34:33;;;;;;;8.77;2.33;;;5.40;99.90;;;;;;4980599;28;20045;-74
2023/11/25 03:36:58;;;;;;;13.30;2.25;;;5.40;99.90;;;;;;4996934;28;20422;-74
2023/11/25 03:39:26;;;;;;;22.00;2.78;;;5.40;99.90;;;;;;4996187;28;20045;-74
2023/11/25 03:41:52;;;;;;;13.93;3.97;;;5.50;99.90;;;;;;4979786;28;20053;-74
2023/11/25 03:44:18;;;;;;;12.40;2.10;;;5.60;99.90;;;;;;4980282;28;20057;-74
2023/11/25 03:46:43;;;;;;;13.25;3.47;;;5.50;99.90;;;;;;4995847;28;20065;-74
2023/11/25 03:49:10;;;;;;;9.25;2.10;;;5.50;99.90;;;;;;4996665;28;20125;-74
2023/11/25 03:51:35;;;;;;;12.68;2.53;;;5.50;99.90;;;;;;4996412;28;20047;-74
2023/11/25 03:54:01;;;;;;;10.57;2.05;;;5.40;99.90;;;;;;4995980;28;20042;-74
2023/11/25 03:56:26;;;;;;;8.90;1.60;;;5.30;99.90;;;;;;4995188;28;20512;-74
2023/11/25 03:58:54;;;;;;;5.47;1.48;;;5.40;99.90;;;;;;4995774;28;20104;-74
2023/11/25 04:01:19;;;;;;;5.10;1.48;;;5.30;99.90;;;;;;4979836;28;20042;-75
2023/11/25 04:03:45;;;;;;;7.88;1.70;;;5.30;99.90;;;;;;4995538;28;20130;-74
2023/11/25 04:06:12;;;;;;;10.57;1.75;;;5.30;99.90;;;;;;4996796;28;20038;-74
2023/11/25 04:08:39;;;;;;;10.73;1.80;;;5.30;99.90;;;;;;4996433;28;20133;-74
2023/11/25 04:11:05;;;;;;;13.88;2.40;;;5.30;99.90;;;;;;4996595;28;20043;-74
2023/11/25 04:13:31;;;;;;;10.63;1.98;;;5.40;99.90;;;;;;4997838;28;20096;-75
2023/11/25 04:15:59;;;;;;;7.45;2.20;;;5.30;99.90;;;;;;4996683;28;20513;-74
2023/11/25 04:18:25;;;;;;;12.48;2.67;;;5.40;99.90;;;;;;4997291;28;20038;-74
2023/11/25 04:20:51;;;;;;;6.57;1.30;;;5.40;99.90;;;;;;4995183;28;20418;-74
2023/11/25 04:23:18;;;;;;;6.20;2.05;;;5.20;99.90;;;;;;4996457;28;20049;-74
2023/11/25 04:25:43;;;;;;;8.90;1.42;;;5.20;99.90;;;;;;4995337;28;20053;-74
2023/11/25 04:28:14;;;;;;;9.35;1.60;;;5.10;99.90;;;;;;4981173;28;20418;-74
2023/11/25 04:30:40;;;;;;;9.98;1.55;;;5.20;99.90;;;;;;4995680;28;20417;-75
2023/11/25 04:33:11;;;;;;;8.25;1.88;;;5.10;99.90;;;;;;4979749;28;20514;-74
2023/11/25 04:35:37;;;;;;;8.60;1.88;;;5.00;99.90;;;;;;4994815;28;20125;-74
2023/11/25 04:38:04;;;;;;;11.50;2.15;;;5.00;99.90;;;;;;4994938;28;20053;-74
2023/11/25 04:40:30;;;;;;;11.95;1.65;;;4.90;99.90;;;;;;4978677;28;20485;-74
2023/11/25 04:42:56;;;;;;;7.50;2.13;;;4.90;99.90;;;;;;4980116;28;20038;-75
2023/11/25 04:45:22;;;;;;;7.97;1.52;;;4.90;99.90;;;;;;4994495;28;20088;-74
2023/11/25 04:47:53;;;;;;;5.18;1.17;;;4.80;99.90;;;;;;4994786;28;20505;-74
2023/11/25 04:50:20;;;;;;;9.43;2.53;;;4.80;99.90;;;;;;4978412;28;20078;-74
2023/11/25 04:52:46;;;;;;;11.18;2.00;;;4.90;99.90;;;;;;4994736;28;20038;-74
2023/11/25 04:55:12;;;;;;;5.68;1.38;;;4.80;99.90;;;;;;4994145;28;20522;-74
2023/11/25 04:57:38;;;;;;;7.32;1.63;;;4.90;99.90;;;;;;4994458;28;20043;-74
2023/11/25 05:00:10;;;;;;;6.72;2.47;;;5.00;99.90;;;;;;4977579;28;20049;-74
2023/11/25 05:02:40;;;;;;;11.50;2.08;;;5.10;99.90;;;;;;4995984;28;20057;-74
2023/11/25 05:05:07;;;;;;;9.27;1.60;;;5.20;99.90;;;;;;4977642;28;20149;-74
2023/11/25 05:07:33;;;;;;;5.30;1.45;;;5.10;99.90;;;;;;4977186;28;20038;-74
2023/11/25 05:10:00;;;;;;;9.07;1.45;;;5.30;99.90;;;;;;4992647;28;20116;-74
2023/11/25 05:12:27;;;;;;;12.30;2.15;;;5.30;99.90;;;;;;4993264;28;20046;-74
2023/11/25 05:14:52;;;;;;;12.07;2.25;;;5.40;99.90;;;;;;4994680;28;20177;-74
2023/11/25 05:17:19;;;;;;;3.75;1.27;;;5.50;99.90;;;;;;4995750;28;20096;-74
2023/11/25 05:19:44;;;;;;;4.90;1.70;;;5.50;99.90;;;;;;4979390;28;20041;-74
2023/11/25 05:22:10;;;;;;;7.25;1.55;;;5.60;99.90;;;;;;4995144;28;20394;-74
2023/11/25 05:24:36;;;;;;;6.25;1.77;;;5.50;99.90;;;;;;4978736;28;20043;-74
2023/11/25 05:27:02;;;;;;;14.30;2.25;;;5.50;99.90;;;;;;4994436;28;20034;-74
2023/11/25 05:29:28;;;;;;;6.82;1.40;;;5.40;99.90;;;;;;4993331;28;20038;-74
2023/11/25 05:31:54;;;;;;;5.97;1.10;;;5.40;99.90;;;;;;4992459;28;20056;-74
2023/11/25 05:34:20;;;;;;;5.38;1.70;;;5.40;99.90;;;;;;4976110;28;20516;-74
2023/11/25 05:36:49;;;;;;;9.23;1.63;;;5.40;99.90;;;;;;4991940;28;20049;-74
2023/11/25 05:39:14;;;;;;;5.68;1.10;;;5.20;99.90;;;;;;4993491;28;20060;-74
2023/11/25 05:41:40;;;;;;;3.03;0.95;;;5.20;99.90;;;;;;4992049;28;20498;-74
2023/11/25 05:44:10;;;;;;;6.30;1.77;;;5.20;99.90;;;;;;4992405;28;20038;-74
2023/11/25 05:46:36;;;;;;;2.30;0.57;;;5.20;99.90;;;;;;4993578;28;20053;-75
2023/11/25 05:49:02;;;;;;;5.97;0.70;;;5.00;99.90;;;;;;4975713;28;20039;-75
2023/11/25 05:51:38;;;;;;;2.40;0.60;;;5.10;99.90;;;;;;4992110;28;20128;-75
2023/11/25 05:54:05;;;;;;;1.63;0.50;;;5.10;99.90;;;;;;4995947;28;20038;-75
2023/11/25 05:56:31;;;;;;;2.42;0.70;;;5.10;99.90;;;;;;4994625;28;20046;-74
2023/11/25 05:58:57;;;;;;;3.70;0.75;;;5.00;99.90;;;;;;4992401;28;20046;-75
2023/11/25 06:01:23;;;;;;;6.13;0.60;;;5.10;99.90;;;;;;4975822;28;20049;-74
2023/11/25 06:03:52;;;;;;;7.47;0.55;;;5.10;99.90;;;;;;4992385;28;20406;-74
2023/11/25 06:06:21;;;;;;;3.95;0.95;;;5.00;99.90;;;;;;4992862;28;20651;-74
2023/11/25 06:08:47;;;;;;;6.00;1.98;;;5.20;99.90;;;;;;4995332;28;20081;-75
2023/11/25 06:11:28;;;;;;;8.35;1.08;;;5.30;99.90;;;;;;4995439;28;20490;-74
2023/11/25 06:13:56;;;;;;;5.55;1.17;;;5.30;99.90;;;;;;4994059;28;20121;-74
2023/11/25 06:16:22;;;;;;;6.13;1.10;;;5.30;99.90;;;;;;4993726;28;20042;-75
2023/11/25 06:18:48;;;;;;;4.85;0.88;;;5.30;99.90;;;;;;4992350;28;20049;-74
2023/11/25 06:21:14;;;;;;;9.95;2.15;;;5.50;99.90;;;;;;4992698;28;20088;-74
2023/11/25 06:23:42;;;;;;;7.07;1.23;;;5.50;99.90;;;;;;4992394;28;20049;-74
2023/11/25 06:26:10;;;;;;;6.00;1.58;;;5.50;99.90;;;;;;4975841;28;20100;-74
2023/11/25 06:28:40;;;;;;;7.30;1.45;;;5.50;99.90;;;;;;4977144;28;20097;-75
2023/11/25 06:31:06;;;;;;;11.18;2.42;;;5.60;99.90;;;;;;4993564;28;20510;-74
2023/11/25 06:33:32;;;;;;;10.35;1.40;;;5.50;99.90;;;;;;4993600;28;20072;-75
2023/11/25 06:35:58;;;;;;;7.47;1.35;;;5.60;99.90;;;;;;4993035;28;20046;-75
2023/11/25 06:38:24;;;;;;;8.07;1.33;;;5.60;99.90;;;;;;4993052;28;20490;-75
2023/11/25 06:40:49;;;;;;;10.35;1.83;;;5.60;99.90;;;;;;4992011;28;20042;-75
2023/11/25 06:43:15;;;;;;;6.63;1.65;;;5.50;99.90;;;;;;4976136;28;20042;-75
2023/11/25 06:45:44;;;;;;;8.70;2.42;;;5.60;99.90;;;;;;4991098;28;20065;-75
2023/11/25 06:48:10;;;;;;;9.18;3.15;;;5.50;99.90;;;;;;4991919;28;20046;-75
2023/11/25 06:50:36;;;;;;;9.40;3.35;;;5.40;99.90;;;;;;4991252;28;20046;-75
2023/11/25 06:53:03;;;;;;;9.82;1.73;;;5.40;99.90;;;;;;4976623;28;20043;-75
2023/11/25 06:55:31;;;;;;;6.35;1.60;;;5.40;99.90;;;;;;4992130;28;20442;-75
2023/11/25 06:57:56;;;;;;;10.02;2.50;;;5.30;99.90;;;;;;4991776;28;20046;-75
2023/11/25 07:00:22;;;;;;;7.15;1.80;;;5.30;99.90;;;;;;4994627;28;20661;-75
2023/11/25 07:02:48;;;;;;;9.43;2.28;;;5.30;99.90;;;;;;4992720;28;20054;-75
2023/11/25 07:05:13;;;;;;;12.68;2.08;;;5.30;99.90;;;;;;4992200;28;20034;-74
2023/11/25 07:07:41;;;;;;;14.52;2.88;;;5.40;99.90;;;;;;4991530;28;20038;-75
2023/11/25 07:10:13;;;;;;;10.52;1.80;;;5.40;99.90;;;;;;4994632;28;20089;-75
2023/11/25 07:12:40;;;;;;;9.38;1.83;;;5.40;99.90;;;;;;4977433;28;20088;-75
2023/11/25 07:15:06;;;;;;;14.32;3.17;;;5.50;99.90;;;;;;4992228;28;20118;-75
2023/11/25 07:17:33;;;;;;;11.35;2.00;;;5.40;99.90;;;;;;4991326;28;20402;-75
2023/11/25 07:19:59;;;;;;;6.68;1.52;;;5.50;99.90;;;;;;4993031;28;20034;-74
2023/11/25 07:22:24;;;;;;;20.60;3.45;;;5.50;99.90;;;;;;4990869;28;20046;-75
2023/11/25 07:24:50;;;;;;;11.27;2.15;;;5.50;99.90;;;;;;4990574;28;20042;-75
2023/11/25 07:27:18;;;;;;;10.20;1.77;;;5.40;99.90;;;;;;4991820;28;20506;-75
2023/11/25 07:29:47;;;;;;;15.75;1.98;;;5.40;99.90;;;;;;4990898;28;20046;-75
2023/11/25 07:32:14;;;;;;;10.00;2.17;;;5.30;99.90;;;;;;4976568;28;20043;-75
2023/11/25 07:34:39;;;;;;;7.13;1.52;;;5.40;99.90;;;;;;4993823;28;20042;-75
2023/11/25 07:37:08;;;;;;;12.77;1.52;;;5.40;99.90;;;;;;4993896;28;20402;-75
2023/11/25 07:39:34;;;;;;;6.80;1.63;;;5.40;99.90;;;;;;4994399;28;20053;-76
2023/11/25 07:42:01;;;;;;;10.35;1.63;;;5.40;99.90;;;;;;4995280;28;20046;-76
2023/11/25 07:44:33;;;;;;;11.65;1.80;;;5.30;99.90;;;;;;4994109;28;20192;-75
2023/11/25 07:47:01;;;;;;;12.73;1.60;;;5.30;99.90;;;;;;4995152;28;20073;-76
2023/11/25 07:49:29;;;;;;;7.95;2.53;;;5.50;99.90;;;;;;4995268;28;20074;-75
2023/11/25 07:51:55;;;;;;;9.63;2.03;;;5.40;99.90;;;;;;4994310;28;20078;-76
2023/11/25 07:54:20;;;;;;;11.88;2.00;;;5.40;99.90;;;;;;4994148;28;20066;-75
2023/11/25 07:56:47;;;;;;;5.68;1.60;;;5.50;99.90;;;;;;4984577;28;20073;-75
2023/11/25 07:59:13;;;;;;;7.45;2.55;;;5.60;99.90;;;;;;4990887;28;20039;-75
2023/11/25 08:01:39;;;;;;;7.00;1.50;;;5.50;99.90;;;;;;4978866;28;20456;-75
2023/11/25 08:04:05;;;;;;;9.55;1.33;;;5.70;99.90;;;;;;4986907;28;20042;-74
2023/11/25 08:06:31;;;;;;;18.27;4.28;;;5.60;99.90;;;;;;4993699;28;20100;-75
2023/11/25 08:08:56;;;;;;;5.18;2.05;;;5.70;99.90;;;;;;4994107;28;20038;-75
2023/11/25 08:11:27;;;;;;;12.70;1.30;;;5.70;99.90;;;;;;4977884;28;20045;-75
2023/11/25 08:13:53;;;;;;;5.65;1.50;;;5.70;99.90;;;;;;4978029;28;20069;-74
2023/11/25 08:16:19;;;;;;;7.60;1.88;;;5.60;99.90;;;;;;4995092;28;20515;-75
2023/11/25 08:18:46;;;;;;;8.98;2.00;;;5.60;99.90;;;;;;4994789;28;20502;-75
2023/11/25 08:21:15;;;;;;;12.00;1.65;;;5.70;99.90;;;;;;4969889;28;20095;-75
2023/11/25 08:23:42;;;;;;;8.82;1.45;;;5.70;99.90;;;;;;4978547;28;20498;-75
2023/11/25 08:26:37;;;;;;;9.38;1.90;;;5.80;99.90;;;;;;4994508;28;20130;-75
2023/11/25 08:29:03;;;;;;;14.13;1.45;;;5.90;99.90;;;;;;4985167;28;20043;-75
2023/11/25 08:31:30;;;;;;;13.70;2.05;;;6.00;99.90;;;;;;4995568;28;20105;-75
2023/11/25 08:34:00;;;;;;;6.40;1.48;;;6.00;99.90;;;;;;4978017;28;20668;-75
2023/11/25 08:36:26;;;;;;;10.15;2.20;;;6.10;99.90;;;;;;4978227;28;20034;-76
2023/11/25 08:38:56;;;;;;;7.10;1.52;;;6.20;99.90;;;;;;4977174;28;20576;-74
2023/11/25 08:41:21;;;;;;;6.45;1.40;;;6.10;99.90;;;;;;4978116;28;20133;-75
2023/11/25 08:43:47;;;;;;;9.00;2.00;;;6.20;99.90;;;;;;4992390;28;20081;-75
2023/11/25 08:46:19;;;;;;;7.50;1.58;;;6.30;99.90;;;;;;4977751;28;20513;-75
2023/11/25 08:48:45;;;;;;;7.78;1.20;;;6.50;99.90;;;;;;4994744;28;20049;-75
2023/11/25 08:51:11;;;;;;;11.68;1.67;;;6.50;99.90;;;;;;4994957;28;20081;-75
2023/11/25 08:53:44;;;;;;;5.60;1.42;;;6.60;99.90;;;;;;4990279;28;20069;-75
2023/11/25 08:56:10;;;;;;;11.57;1.38;;;6.60;99.90;;;;;;4976744;28;20549;-76
2023/11/25 08:58:36;;;;;;;6.25;1.30;;;6.50;99.90;;;;;;4993732;28;20070;-75
2023/11/25 09:01:02;;;;;;;6.63;1.20;;;6.40;99.90;;;;;;4984415;28;20054;-77
2023/11/25 09:03:27;;;;;;;7.30;1.25;;;6.50;99.90;;;;;;4970161;28;20108;-75
2023/11/25 09:05:53;;;;;;;6.50;2.03;;;6.50;99.90;;;;;;4982171;28;20517;-75
2023/11/25 09:08:20;;;;;;;10.20;1.73;;;6.50;99.90;;;;;;4996069;28;20516;-75
2023/11/25 09:10:45;;;;;;;15.13;3.08;;;6.60;99.90;;;;;;4996844;28;20379;-75
2023/11/25 09:13:11;;;;;;;7.53;1.92;;;6.60;99.90;;;;;;4996055;28;20133;-75
2023/11/25 09:15:37;;;;;;;10.55;1.80;;;6.70;99.90;;;;;;4978869;28;20038;-73
2023/11/25 09:18:06;;;;;;;14.32;2.55;;;6.70;99.90;;;;;;4996024;28;20532;-75
2023/11/25 09:20:32;;;;;;;10.73;2.58;;;6.90;99.90;;;;;;4979842;28;20564;-75
2023/11/25 09:22:58;;;;;;;23.05;2.47;;;7.00;99.90;;;;;;4995225;28;20042;-75
2023/11/25 09:25:24;;;;;;;7.03;1.83;;;7.10;99.90;;;;;;4996396;28;20100;-75
2023/11/25 09:27:51;;;;;;;11.75;2.10;;;7.20;99.90;;;;;;4979159;28;20046;-75
2023/11/25 09:30:18;;;;;;;9.35;2.75;;;7.20;99.90;;;;;;4978887;28;20042;-77
2023/11/25 09:32:44;;;;;;;12.13;2.35;;;7.30;99.90;;;;;;4994279;28;20084;-75
2023/11/25 09:35:11;;;;;;;10.10;2.40;;;7.20;99.90;;;;;;4993870;28;20540;-74
2023/11/25 09:37:40;;;;;;;13.07;2.13;;;7.30;99.90;;;;;;4996380;28;20037;-74
2023/11/25 09:40:07;;;;;;;17.58;3.28;;;7.30;99.90;;;;;;4996837;28;20530;-75
2023/11/25 09:42:33;;;;;;;15.00;3.45;;;7.20;99.90;;;;;;4999396;28;20088;-74
2023/11/25 09:45:03;;;;;;;10.52;2.35;;;7.30;99.90;;;;;;4996811;28;20145;-75
2023/11/25 09:47:28;;;;;;;13.18;2.17;;;7.30;99.90;;;;;;4987533;28;20453;-75
2023/11/25 09:49:54;;;;;;;14.98;2.17;;;7.30;99.90;;;;;;4991699;28;20027;-75
2023/11/25 09:52:20;;;;;;;9.73;2.22;;;7.40;99.90;;;;;;4996942;28;20061;-76
2023/11/25 09:54:46;;;;;;;7.57;1.83;;;7.30;99.90;;;;;;4991385;28;20061;-75
2023/11/25 09:57:20;;;;;;;10.88;2.10;;;7.30;99.90;;;;;;4990049;28;20054;-75
2023/11/25 09:59:46;;;;;;;10.38;3.15;;;7.40;99.90;;;;;;4982762;28;20379;-74
2023/11/25 10:02:16;;;;;;;10.73;1.73;;;7.40;99.90;;;;;;4994343;28;20045;-74
2023/11/25 10:04:43;;;;;;;8.40;2.58;;;7.40;99.90;;;;;;4979303;28;20070;-77
2023/11/25 10:07:11;;;;;;;8.32;2.47;;;7.40;99.90;;;;;;4993746;28;20050;-77
2023/11/25 10:09:40;;;;;;;13.27;2.08;;;7.50;99.90;;;;;;4993147;28;20045;-75
2023/11/25 10:12:07;;;;;;;7.85;1.55;;;7.50;99.90;;;;;;4977360;28;20054;-75
2023/11/25 10:14:33;;;;;;;6.60;1.77;;;7.60;99.90;;;;;;4994136;28;20117;-76
2023/11/25 10:17:18;;;;;;;13.20;1.85;;;7.70;99.90;;;;;;4975370;28;20045;-77
2023/11/25 10:19:48;;;;;;;13.35;1.80;;;7.70;99.90;;;;;;4976194;28;20043;-76
2023/11/25 10:22:14;;;;;;;9.35;1.63;;;7.70;99.90;;;;;;4995453;28;20611;-77
2023/11/25 10:24:50;;;;;;;8.98;1.98;;;7.90;99.90;;;;;;4995483;28;20506;-77
2023/11/25 10:27:23;;;;;;;9.30;2.65;;;7.90;99.90;;;;;;4995217;28;20552;-77
2023/11/25 10:29:49;;;;;;;6.10;1.23;;;7.90;99.90;;;;;;4978333;28;20045;-77
2023/11/25 10:32:15;;;;;;;9.23;2.03;;;7.90;99.90;;;;;;4972061;28;20069;-78
2023/11/25 10:34:40;;;;;;;11.50;1.70;;;7.90;99.90;;;;;;4980448;28;20035;-77
2023/11/25 10:37:08;;;;;;;5.97;1.02;;;7.90;99.90;;;;;;4995563;28;20026;-77
2023/11/25 10:39:35;;;;;;;6.38;0.88;;;7.80;99.90;;;;;;4977051;28;20081;-77
2023/11/25 10:42:07;;;;;;;3.10;1.08;;;7.50;99.90;;;;;;4975488;28;20043;-78
2023/11/25 10:44:38;;;;;;;6.45;1.02;;;7.50;99.90;;;;;;4957905;28;20108;-78
2023/11/25 10:47:04;;;;;;;5.45;0.65;;;7.40;99.90;;;;;;4972112;28;20039;-78
2023/11/25 10:49:36;;;;;;;6.80;1.05;;;7.20;99.90;;;;;;4972815;28;20042;-78
2023/11/25 10:52:06;;;;;;;7.20;1.35;;;7.20;99.90;;;;;;4973349;28;20038;-77
2023/11/25 10:54:34;;;;;;;4.20;1.00;;;7.20;99.90;;;;;;4973059;28;20039;-77
2023/11/25 10:57:05;;;;;;;4.38;0.70;;;7.20;99.90;;;;;;4971626;28;20117;-77
2023/11/25 10:59:33;;;;;;;8.95;1.23;;;7.20;99.90;;;;;;4971681;28;20089;-77
2023/11/25 11:02:02;;;;;;;7.40;2.13;;;7.20;99.90;;;;;;4972008;28;20043;-78
2023/11/25 11:04:48;;;;;;;5.97;0.93;;;7.30;99.90;;;;;;4966094;28;20046;-77
2023/11/25 11:07:15;;;;;;;12.35;1.52;;;7.30;99.90;;;;;;4993118;28;20048;-77
2023/11/25 11:09:43;;;;;;;3.47;0.80;;;7.30;99.90;;;;;;4995388;28;20043;-78
2023/11/25 11:12:38;;;;;;;5.47;0.75;;;7.20;99.90;;;;;;4999412;28;20097;-78
2023/11/25 11:15:06;;;;;;;5.70;0.70;;;7.20;99.90;;;;;;4968274;28;20405;-78
2023/11/25 11:17:40;;;;;;;4.65;0.45;;;7.30;99.90;;;;;;4996947;28;20041;-77
2023/11/25 11:20:11;;;;;;;5.60;0.60;;;7.30;99.90;;;;;;4997456;28;20038;-77
2023/11/25 11:22:40;;;;;;;3.65;0.60;;;7.40;99.90;;;;;;4981519;28;20129;-78
2023/11/25 11:25:15;;;;;;;6.05;0.88;;;7.50;99.90;;;;;;4996962;28;20069;-78
2023/11/25 11:27:55;;;;;;;4.75;0.77;;;7.50;99.90;;;;;;4995529;28;20042;-77
2023/11/25 11:30:34;;;;;;;4.13;0.90;;;7.50;99.90;;;;;;4981948;28;20046;-78
2023/11/25 11:33:01;;;;;;;2.20;0.60;;;7.40;99.90;;;;;;4997472;28;20042;-78
2023/11/25 11:35:37;;;;;;;4.30;1.17;;;7.30;99.90;;;;;;4982732;28;20417;-77
2023/11/25 11:38:26;;;;;;;5.68;0.60;;;7.20;99.90;;;;;;4999290;28;20102;-77
2023/11/25 11:41:00;;;;;;;2.50;0.77;;;7.10;99.90;;;;;;4996026;28;20050;-77
2023/11/25 11:43:28;;;;;;;2.38;0.90;;;7.00;99.90;;;;;;4971930;28;20042;-78
2023/11/25 11:45:54;;;;;;;4.30;0.80;;;6.90;99.90;;;;;;4993218;28;20045;-77
2023/11/25 11:48:22;;;;;;;3.70;0.70;;;6.80;99.90;;;;;;4995554;28;20038;-78
2023/11/25 11:50:54;;;;;;;4.53;0.57;;;6.50;99.90;;;;;;4979585;28;20050;-78
2023/11/25 11:53:21;;;;;;;3.13;0.52;;;6.50;99.90;;;;;;4993048;28;20502;-77
2023/11/25 11:55:57;;;;;;;5.60;0.75;;;6.40;99.90;;;;;;4992881;28;20510;-78
2023/11/25 11:58:25;;;;;;;4.13;0.77;;;6.40;99.90;;;;;;4974933;28;20162;-76
2023/11/25 12:01:00;;;;;;;2.80;0.70;;;6.40;99.90;;;;;;4976339;28;20035;-76
2023/11/25 12:03:26;;;;;;;2.78;0.55;;;6.30;99.90;;;;;;4976916;28;20128;-76
2023/11/25 12:05:53;;;;;;;2.75;0.88;;;6.40;99.90;;;;;;4982541;28;20487;-75
2023/11/25 12:08:20;;;;;;;4.00;0.90;;;6.40;99.90;;;;;;4978854;28;20045;-75
2023/11/25 12:10:47;;;;;;;4.78;0.73;;;6.50;99.90;;;;;;5010382;28;20046;-75
2023/11/25 12:13:27;;;;;;;5.00;0.68;;;6.60;99.90;;;;;;4980664;28;20070;-75
2023/11/25 12:15:54;;;;;;;4.93;0.60;;;6.50;99.90;;;;;;4998590;28;20462;-75
2023/11/25 12:18:20;;;;;;;1.50;0.55;;;6.60;99.90;;;;;;4997098;28;20038;-75
2023/11/25 12:20:46;;;;;;;2.60;1.05;;;6.50;99.90;;;;;;4995654;28;20069;-75
2023/11/25 12:23:12;;;;;;;4.78;0.73;;;6.50;99.90;;;;;;4996258;28;20053;-75
2023/11/25 12:25:39;;;;;;;3.67;0.82;;;6.70;99.90;;;;;;4994501;28;20038;-75
2023/11/25 12:28:09;;;;;;;3.80;1.10;;;6.50;99.90;;;;;;4993930;28;20078;-76
2023/11/25 12:30:39;;;;;;;3.72;1.35;;;6.50;99.90;;;;;;4977528;28;20081;-75
2023/11/25 12:33:06;;;;;;;1.73;0.57;;;6.50;99.90;;;;;;4976216;28;20034;-75
2023/11/25 12:35:40;;;;;;;3.20;0.95;;;6.60;99.90;;;;;;4976023;28;20501;-75
2023/11/25 12:38:06;;;;;;;4.63;1.27;;;6.60;99.90;;;;;;4976698;28;20039;-75
2023/11/25 12:40:33;;;;;;;7.07;1.70;;;6.70;99.90;;;;;;4985555;28;20093;-75
2023/11/25 12:42:58;;;;;;;6.47;0.95;;;6.80;99.90;;;;;;4997000;28;20038;-76
2023/11/25 12:45:31;;;;;;;8.68;1.05;;;6.80;99.90;;;;;;4994905;28;20185;-76
2023/11/25 12:47:58;;;;;;;10.10;1.05;;;6.80;99.90;;;;;;4995939;28;20451;-75
2023/11/25 12:50:24;;;;;;;4.57;1.67;;;6.90;99.90;;;;;;4995028;28;20035;-75
2023/11/25 12:53:04;;;;;;;4.40;0.90;;;6.90;99.90;;;;;;4997128;28;20051;-77
2023/11/25 12:55:37;;;;;;;3.80;1.40;;;6.90;99.90;;;;;;4994111;28;20176;-77
2023/11/25 12:58:13;;;;;;;3.40;1.10;;;6.90;99.90;;;;;;4995000;28;20578;-77